地図

経路データ

SID SEASON NUMBER BASIN SUBBASIN NAME ISO_TIME NATURE LAT LON WMO_WIND WMO_PRES WMO_AGENCY TRACK_TYPE DIST2LAND LANDFALL IFLAG USA_AGENCY USA_ATCF_ID USA_LAT USA_LON USA_RECORD USA_STATUS USA_WIND USA_PRES USA_SSHS USA_R34_NE USA_R34_SE USA_R34_SW USA_R34_NW USA_R50_NE USA_R50_SE USA_R50_SW USA_R50_NW USA_R64_NE USA_R64_SE USA_R64_SW USA_R64_NW USA_POCI USA_ROCI USA_RMW USA_EYE TOKYO_LAT TOKYO_LON TOKYO_GRADE TOKYO_WIND TOKYO_PRES TOKYO_R50_DIR TOKYO_R50_LONG TOKYO_R50_SHORT TOKYO_R30_DIR TOKYO_R30_LONG TOKYO_R30_SHORT TOKYO_LAND CMA_LAT CMA_LON CMA_CAT CMA_WIND CMA_PRES HKO_LAT HKO_LON HKO_CAT HKO_WIND HKO_PRES NEWDELHI_LAT NEWDELHI_LON NEWDELHI_GRADE NEWDELHI_WIND NEWDELHI_PRES NEWDELHI_CI NEWDELHI_DP NEWDELHI_POCI REUNION_LAT REUNION_LON REUNION_TYPE REUNION_WIND REUNION_PRES REUNION_TNUM REUNION_CI REUNION_RMW REUNION_R34_NE REUNION_R34_SE REUNION_R34_SW REUNION_R34_NW REUNION_R50_NE REUNION_R50_SE REUNION_R50_SW REUNION_R50_NW REUNION_R64_NE REUNION_R64_SE REUNION_R64_SW REUNION_R64_NW BOM_LAT BOM_LON BOM_TYPE BOM_WIND BOM_PRES BOM_TNUM BOM_CI BOM_RMW BOM_R34_NE BOM_R34_SE BOM_R34_SW BOM_R34_NW BOM_R50_NE BOM_R50_SE BOM_R50_SW BOM_R50_NW BOM_R64_NE BOM_R64_SE BOM_R64_SW BOM_R64_NW BOM_ROCI BOM_POCI BOM_EYE BOM_POS_METHOD BOM_PRES_METHOD NADI_LAT NADI_LON NADI_CAT NADI_WIND NADI_PRES WELLINGTON_LAT WELLINGTON_LON WELLINGTON_WIND WELLINGTON_PRES DS824_LAT DS824_LON DS824_STAGE DS824_WIND DS824_PRES TD9636_LAT TD9636_LON TD9636_STAGE TD9636_WIND TD9636_PRES TD9635_LAT TD9635_LON TD9635_WIND TD9635_PRES TD9635_ROCI NEUMANN_LAT NEUMANN_LON NEUMANN_CLASS NEUMANN_WIND NEUMANN_PRES MLC_LAT MLC_LON MLC_CLASS MLC_WIND MLC_PRES USA_GUST BOM_GUST BOM_GUST_PER REUNION_GUST REUNION_GUST_PER USA_SEAHGT USA_SEARAD_NE USA_SEARAD_SE USA_SEARAD_SW USA_SEARAD_NW STORM_SPEED STORM_DIR
1945242N15136 1945 53 WP MM HELEN 1945-08-29 12:00:00 TS 14.5000 135.500 main 1112 1091 O________OOO__ jtwc_wp WP161945 14.5000 135.500 25 -1 14.5000 135.500 TC 25 14.5000 135.500 1 25 14.5000 135.500 25 1003 300 5 269
1945242N15136 1945 53 WP MM HELEN 1945-08-29 15:00:00 TS 14.4960 135.260 main 1091 1070 P________PPP__ WP161945 14.5027 135.230 27 -1 14.5027 135.230 TC 27 14.4759 135.351 1 27 14.5027 135.230 27 1002 330 4 269
1945242N15136 1945 53 WP MM HELEN 1945-08-29 18:00:00 TS 14.4904 135.041 main 1060 1039 O________OPO__ jtwc_wp WP161945 14.5000 135.000 30 -1 14.5000 135.000 TC 30 14.4615 135.162 1 30 14.5000 135.000 30 1001 360 4 269
1945242N15136 1945 53 WP MM HELEN 1945-08-29 21:00:00 TS 14.4857 134.830 main 1039 1007 P________PPP__ WP161945 14.4922 134.810 32 -1 14.4922 134.810 TC 32 14.4664 134.892 1 32 14.4922 134.810 32 1000 330 5 271
1945242N15136 1945 53 WP MM HELEN 1945-08-30 00:00:00 TS 14.5000 134.500 main 1007 955 O________OOO__ jtwc_wp WP161945 14.5000 134.500 35 0 14.5000 134.500 TC 35 14.5000 134.500 2 35 14.5000 134.500 35 999 300 9 273
1945242N15136 1945 53 WP MM HELEN 1945-08-30 03:00:00 TS 14.5326 133.917 main 944 885 P________PPP__ WP161945 14.5203 133.902 37 0 14.5203 133.902 TC 37 14.5697 133.963 2 36 14.5203 133.902 37 998 270 12 276
1945242N15136 1945 53 WP MM HELEN 1945-08-30 06:00:00 TS 14.6191 133.231 main 875 821 O________OPO__ jtwc_wp WP161945 14.6000 133.200 40 0 14.6000 133.200 TC 40 14.6763 133.325 2 37 14.6000 133.200 40 998 240 13 281
1945242N15136 1945 53 WP MM HELEN 1945-08-30 09:00:00 TS 14.7880 132.596 main 821 769 P________PPP__ WP161945 14.7774 132.578 40 0 14.7774 132.578 TC 40 14.8197 132.650 2 38 14.7774 132.578 40 996 270 13 288
1945242N15136 1945 53 WP MM HELEN 1945-08-30 12:00:00 TS 15.0000 132.000 main 769 730 O________OOO__ jtwc_wp WP161945 15.0000 132.000 40 0 15.0000 132.000 TC 40 15.0000 132.000 2 40 15.0000 132.000 40 995 300 12 290
1945242N15136 1945 53 WP MM HELEN 1945-08-30 15:00:00 TS 15.1920 131.475 main 730 693 P________PPP__ WP161945 15.1848 131.485 42 0 15.1848 131.485 TC 42 15.2136 131.444 2 41 15.1848 131.485 42 993 300 11 293
1945242N15136 1945 53 WP MM HELEN 1945-08-30 18:00:00 TS 15.4155 130.981 main 693 666 O________OPO__ jtwc_wp WP161945 15.4000 131.000 45 0 15.4000 131.000 TC 45 15.4620 130.925 2 42 15.4000 131.000 45 992 300 11 298
1945242N15136 1945 53 WP MM HELEN 1945-08-30 21:00:00 TS 15.7017 130.469 main 666 645 P________PPP__ WP161945 15.6925 130.478 45 0 15.6925 130.478 TC 45 15.7294 130.444 2 43 15.6925 130.478 45 990 300 11 302
1945242N15136 1945 53 WP MM HELEN 1945-08-31 00:00:00 TS 16.0000 130.000 main 645 615 O________OOO__ jtwc_wp WP161945 16.0000 130.000 45 0 16.0000 130.000 TC 45 16.0000 130.000 2 45 16.0000 130.000 45 988 300 10 304
1945242N15136 1945 53 WP MM HELEN 1945-08-31 03:00:00 TS 16.2497 129.631 main 615 595 P________PPP__ WP161945 16.2573 129.635 47 0 16.2573 129.635 TC 47 16.2271 129.618 2 48 16.2573 129.635 47 986 300 8 306
1945242N15136 1945 53 WP MM HELEN 1945-08-31 06:00:00 TS 16.4895 129.291 main 601 575 O________OPO__ jtwc_wp WP161945 16.5000 129.300 50 0 16.5000 129.300 TC 50 16.4581 129.266 2 52 16.5000 129.300 50 985 300 8 305
1945242N15136 1945 53 WP MM HELEN 1945-08-31 09:00:00 TS 16.7287 128.918 main 575 559 P________PPP__ WP161945 16.7349 128.922 55 0 16.7349 128.922 TC 55 16.7101 128.906 2 56 16.7349 128.922 55 983 300 9 304
1945242N15136 1945 53 WP MM HELEN 1945-08-31 12:00:00 TS 17.0000 128.500 main 559 541 O________OOO__ jtwc_wp WP161945 17.0000 128.500 60 0 17.0000 128.500 TC 60 17.0000 128.500 2 60 17.0000 128.500 60 982 300 11 305
1945242N15136 1945 53 WP MM HELEN 1945-08-31 15:00:00 TS 17.3286 128.014 main 541 534 P________PPP__ WP161945 17.3275 128.015 62 0 17.3275 128.015 TC 62 17.3321 128.012 2 62 17.3275 128.015 62 980 300 12 306
1945242N15136 1945 53 WP MM HELEN 1945-08-31 18:00:00 TS 17.7000 127.500 main 536 492 O________OOO__ jtwc_wp WP161945 17.7000 127.500 65 1 17.7000 127.500 TC 65 17.7000 127.500 3 65 17.7000 127.500 65 979 300 12 308
1945242N15136 1945 53 WP MM HELEN 1945-08-31 21:00:00 TS 18.0928 127.000 main 492 443 P________PPP__ WP161945 18.0924 127.000 67 1 18.0924 127.000 TC 67 18.0941 127.000 3 67 18.0924 127.000 67 977 330 12 310
1945242N15136 1945 53 WP MM HELEN 1945-09-01 00:00:00 TS 18.5000 126.500 main 443 393 O________OOO__ jtwc_wp WP161945 18.5000 126.500 70 1 18.5000 126.500 TC 70 18.5000 126.500 4 70 18.5000 126.500 70 976 360 13 310
1945242N15136 1945 53 WP MM HELEN 1945-09-01 03:00:00 TS 18.9017 125.996 main 393 348 P________PPP__ WP161945 18.9074 126.000 75 1 18.9074 126.000 TC 75 18.8848 125.983 4 73 18.9074 126.000 75 974 360 12 310
1945242N15136 1945 53 WP MM HELEN 1945-09-01 06:00:00 TS 19.2901 125.491 main 351 314 O________OPO__ jtwc_wp WP161945 19.3000 125.500 80 1 19.3000 125.500 TC 80 19.2603 125.466 4 77 19.3000 125.500 80 973 360 12 308
1945242N15136 1945 53 WP MM HELEN 1945-09-01 09:00:00 TS 19.6508 124.980 main 318 292 P________PPP__ WP161945 19.6575 124.985 82 1 19.6575 124.985 TC 82 19.6306 124.966 4 81 19.6575 124.985 82 971 360 12 307
1945242N15136 1945 53 WP MM HELEN 1945-09-01 12:00:00 TS 20.0000 124.500 main 292 283 O________OOO__ jtwc_wp WP161945 20.0000 124.500 85 2 20.0000 124.500 TC 85 20.0000 124.500 4 85 20.0000 124.500 85 970 360 11 309
1945242N15136 1945 53 WP MM HELEN 1945-09-01 15:00:00 TS 20.3453 124.075 main 284 284 P________PPP__ WP161945 20.3423 124.077 90 2 20.3423 124.077 TC 90 20.3543 124.068 4 90 20.3423 124.077 90 969 330 10 313
1945242N15136 1945 53 WP MM HELEN 1945-09-01 18:00:00 TS 20.7030 123.693 main 296 263 O________OPO__ jtwc_wp WP161945 20.7000 123.700 95 2 20.7000 123.700 TC 95 20.7121 123.674 4 95 20.7000 123.700 95 968 300 10 316
1945242N15136 1945 53 WP MM HELEN 1945-09-01 21:00:00 TS 21.0803 123.325 main 263 221 P________PPP__ WP161945 21.0775 123.327 100 3 21.0775 123.327 TC 100 21.0888 123.318 4 100 21.0775 123.327 100 967 330 10 321
1945242N15136 1945 53 WP MM HELEN 1945-09-02 00:00:00 TS 21.5000 123.000 main 221 181 O________OOO__ jtwc_wp WP161945 21.5000 123.000 105 3 21.5000 123.000 TC 105 21.5000 123.000 4 105 21.5000 123.000 105 966 360 11 329
1945242N15136 1945 53 WP MM HELEN 1945-09-02 03:00:00 TS 21.9846 122.729 main 181 131 P________PPP__ WP161945 21.9849 122.735 105 3 21.9849 122.735 TC 105 21.9839 122.714 4 101 21.9849 122.735 105 965 390 11 335
1945242N15136 1945 53 WP MM HELEN 1945-09-02 06:00:00 TS 22.4999 122.490 main 131 92 O________OPO__ jtwc_wp WP161945 22.5000 122.500 105 3 22.5000 122.500 TC 105 22.4994 122.462 4 97 22.5000 122.500 105 965 420 11 337
1945242N15136 1945 53 WP MM HELEN 1945-09-02 09:00:00 TS 23.0207 122.245 main 82 55 P________PPP__ WP161945 23.0225 122.250 97 3 23.0225 122.250 TC 97 23.0153 122.229 4 93 23.0225 122.250 97 966 360 11 336
1945242N15136 1945 53 WP MM HELEN 1945-09-02 12:00:00 TS 23.5000 122.000 main 55 30 O________OOO__ jtwc_wp WP161945 23.5000 122.000 90 2 23.5000 122.000 TC 90 23.5000 122.000 4 90 23.5000 122.000 90 967 300 10 332
1945242N15136 1945 53 WP MM HELEN 1945-09-02 15:00:00 TS 23.8815 121.750 main 20 0 P________PPP__ WP161945 23.8650 121.750 82 1 23.8650 121.750 TC 82 23.9311 121.750 4 82 23.8650 121.750 82 968 330 9 328
1945242N15136 1945 53 WP MM HELEN 1945-09-02 18:00:00 TS 24.2312 121.500 main 0 0 O________OPO__ jtwc_wp WP161945 24.2000 121.500 75 1 24.2000 121.500 TC 75 24.3248 121.499 4 75 24.2000 121.500 75 970 360 9 329
1945242N15136 1945 53 WP MM HELEN 1945-09-02 21:00:00 TS 24.6315 121.250 main 0 0 P________PPP__ WP161945 24.6150 121.250 67 1 24.6150 121.250 TC 67 24.6811 121.250 4 67 24.6150 121.250 67 972 330 9 329
1945242N15136 1945 53 WP MM HELEN 1945-09-03 00:00:00 TS 25.0000 121.000 main 0 0 O________OOO__ jtwc_wp WP161945 25.0000 121.000 60 0 25.0000 121.000 TC 60 25.0000 121.000 2 60 25.0000 121.000 60 975 300 8 325
1945242N15136 1945 53 WP MM HELEN 1945-09-03 03:00:00 TS 25.2808 120.755 main 39 39 P________PPP__ WP161945 25.2725 120.750 55 0 25.2725 120.750 TC 55 25.3058 120.770 2 57 25.2725 120.750 55 977 330 7 319
1945242N15136 1945 53 WP MM HELEN 1945-09-03 06:00:00 TS 25.5186 120.509 main 75 61 O________OPO__ jtwc_wp WP161945 25.5000 120.500 50 0 25.5000 120.500 TC 50 25.5743 120.537 2 55 25.5000 120.500 50 980 360 7 319
1945242N15136 1945 53 WP MM HELEN 1945-09-03 09:00:00 TS 25.7807 120.276 main 61 29 P________PPP__ WP161945 25.7723 120.272 50 0 25.7723 120.272 TC 50 25.8057 120.286 2 52 25.7723 120.272 50 982 330 7 316
1945242N15136 1945 53 WP MM HELEN 1945-09-03 12:00:00 TS 26.0000 120.000 main 29 9 O________OOO__ jtwc_wp WP161945 26.0000 120.000 50 0 26.0000 120.000 TC 50 26.0000 120.000 2 50 26.0000 120.000 50 984 300 7 300
1945242N15136 1945 53 WP MM HELEN 1945-09-03 15:00:00 TS 26.1216 119.621 main 9 0 P________PPP__ WP161945 26.1151 119.615 47 0 26.1151 119.615 TC 47 26.1411 119.640 2 48 26.1151 119.615 47 985 300 7 287
1945242N15136 1945 53 WP MM HELEN 1945-09-03 18:00:00 TS 26.2127 119.212 main 0 0 O________OPO__ jtwc_wp WP161945 26.2000 119.200 45 0 26.2000 119.200 TC 45 26.2506 119.249 2 47 26.2000 119.200 45 987 300 7 288
1945242N15136 1945 53 WP MM HELEN 1945-09-03 21:00:00 TS 26.3468 118.835 main 0 0 P________PPP__ WP161945 26.3425 118.828 45 0 26.3425 118.828 TC 45 26.3598 118.859 2 46 26.3425 118.828 45 989 300 7 294
1945242N15136 1945 53 WP MM HELEN 1945-09-04 00:00:00 TS 26.5000 118.500 main 0 0 O________OOO__ jtwc_wp WP161945 26.5000 118.500 45 0 26.5000 118.500 TC 45 26.5000 118.500 2 45 26.5000 118.500 45 991 300 6 298
1945242N15136 1945 53 WP MM HELEN 1945-09-04 03:00:00 TS 26.6387 118.225 main 0 0 P________PPP__ WP161945 26.6199 118.235 42 0 26.6199 118.235 TC 42 26.6950 118.196 2 43 26.6199 118.235 42 993 240 6 306
1945242N15136 1945 53 WP MM HELEN 1945-09-04 06:00:00 TS 26.8343 117.985 main 0 0 O________OPO__ jtwc_wp WP161945 26.8000 118.000 40 0 26.8000 118.000 TC 40 26.9372 117.939 2 42 26.8000 118.000 40 995 180 7 319
1945242N15136 1945 53 WP MM HELEN 1945-09-04 09:00:00 TS 27.1353 117.745 main 0 0 P________PPP__ WP161945 27.1101 117.756 40 0 27.1101 117.756 TC 40 27.2108 117.712 2 41 27.1101 117.756 40 996 180 8 327
1945242N15136 1945 53 WP MM HELEN 1945-09-04 12:00:00 TS 27.5000 117.500 main 0 O________OOO__ jtwc_wp WP161945 27.5000 117.500 40 0 27.5000 117.500 TC 40 27.5000 117.500 2 40 27.5000 117.500 40 998 180 9 329

デジタル台風データ・検索

IBTrACS Databaseについて

本データベースは、米国NOAAが公開する1842年以降の世界の熱帯低気圧のベストトラックデータアーカイブInternational Best Track Archive for Climate Stewardship (IBTrACS)を、ウェブで閲覧しやすい形式に変換したものです。

最終更新日:2021-12-03